Rayne, LA (70578)

4:22 PM CDT on May 04, 2015 (GMT -0500)
Oaktree Lane | | Change Station
CLOSE
Current Station
Personal Weather Station
Location: Rayne, LA
Elevation: 28 ft
Nearby Weather Stations

Elev 28 ft 30.27 °N, 92.26 °W | Updated 1 second ago

Thunderstorm
Thunderstorm
72.6 °F
Feels Like 70 °F
N
2.0
Wind Variable Wind from SE
Gusts 3.0 mph

Today
High -- | Low -- °F
--% Chance of Precip.
Yesterday
High -- | Low -- °F
Precip. -- in
6:23 AM 7:48 PM
Waxing Gibbous, 99% visible
Pressure 30.10 in
Visibility 10.0 miles
Clouds Few 4500 ft
Scattered Clouds 9000 ft
Scattered Clouds 10000 ft
Heat Index 70 °F
Dew Point 69 °F
Humidity 89%
Rainfall 0.02 in
Snow Depth Not available.
UV 6 out of 12
Pollen 6.20 out of 12
Air Quality Not available.
Flu Activity Sporadic
SPECI KLFT 042114Z VRB06KT 10SM FEW045 SCT090 SCT100 23/19 A3010 RMK AO2 LTG DSNT W AND NW RAE04 TSE00 P0000 T02330189

More Conditions Fewer Conditions

Pressure 30.10 in
Visibility 10.0 miles
Clouds Few 4500 ft
Scattered Clouds 9000 ft
Scattered Clouds 10000 ft
Heat Index 70 °F
Dew Point 69 °F
Humidity 89%
Rainfall 0.02 in
Snow Depth Not available.
UV 6 out of 12
Pollen 6.20 out of 12
Air Quality Not available.
Flu Activity Sporadic
SPECI KLFT 042114Z VRB06KT 10SM FEW045 SCT090 SCT100 23/19 A3010 RMK AO2 LTG DSNT W AND NW RAE04 TSE00 P0000 T02330189

More Conditions Fewer Conditions

Nepal has a long way to go to dig out and rebuild from a devastating earthquake. We have teamed up with several charities and organizations to make contributing to the relief effort as easy as possible.
How you can help: Portlight Strategies | Red Cross
Nowcast | as of 3:01 PM CDT on May 4, 2015

Through 5 PM...widely scattered showers and a few thunderstorms will continue moving northwest at 15 mph through Acadiana. This activity will move through Lafayette between 4 PM and 5 PM. Gusts to 30 mph and rainfall rates between a half inch and an inch an hour can be expected as far northwest as Rayne and Opelousas.

×

10-Day Weather Forecast

Almanac

Astronomy

May. 04, 2015 Rise Set
Actual Time
Civil Twilight
Nautical Twilight
Astronomical Twilight
Moon
Length of Visible Light
Length of Day
Tomorrow will be .
, % of the Moon is Illuminated

Today's Extremes

State Highs State Lows

Community

WunderPhotos

Upload Photos

1,818,703 photos uploaded!

WunderBlogs® & News

Nearby

Air Quality

  Air Quality AQ Index Pollutant
Not available.

Snow Depth

Station Depth Elevation

Earthquake Activity

City Distance Mag. Time & Date
Minimum magnitude displayed is 2.5.

Coastal Water Temperatures

Place Temperature

Stations

Nearby Weather Stations

Station Location Temp. Windchill Dew Point Humidity Wind Precip. Elev Updated Type